Time,TemperatureF,DewpointF,PressureIn,WindDirection,WindDirectionDegrees,WindSpeedMPH,WindSpeedGustMPH,Humidity,HourlyPrecipIn,Conditions,Clouds,dailyrainin,SolarRadiationWatts/m^2,SoftwareType,DateUTC
2013-08-23 00:21:00,56.0,48.0,-100.00,ENE,78,2.0,4.0,74,0.00,,,0.04,1.000000,,2013-08-23 06:21:00,
2013-08-23 00:32:00,56.0,48.0,-100.00,ENE,78,2.0,4.0,74,0.00,,,0.04,1.000000,,2013-08-23 06:32:00,
2013-08-23 00:41:00,56.0,48.0,-100.00,ENE,78,2.0,4.0,74,0.00,,,0.04,1.000000,,2013-08-23 06:41:00,
2013-08-23 00:52:00,56.0,48.0,-100.00,ENE,78,2.0,4.0,74,0.00,,,0.04,1.000000,,2013-08-23 06:52:00,
2013-08-23 01:22:00,54.0,47.0,-100.00,ENE,57,2.0,3.0,76,0.00,,,-99.99,1.000000,,2013-08-23 07:22:00,
2013-08-23 01:32:00,54.0,47.0,-100.00,ENE,57,2.0,3.0,76,0.00,,,-99.99,1.000000,,2013-08-23 07:32:00,
2013-08-23 01:42:00,54.0,47.0,-100.00,ENE,57,2.0,3.0,76,0.00,,,-99.99,1.000000,,2013-08-23 07:42:00,
2013-08-23 01:52:00,54.0,47.0,-100.00,ENE,57,2.0,3.0,76,0.00,,,-99.99,1.000000,,2013-08-23 07:52:00,
2013-08-23 02:22:00,55.0,47.0,-100.00,ENE,67,3.0,4.0,73,0.00,,,0.04,1.000000,,2013-08-23 08:22:00,
2013-08-23 02:32:00,55.0,47.0,-100.00,ENE,67,3.0,4.0,73,0.00,,,0.04,1.000000,,2013-08-23 08:32:00,
2013-08-23 02:42:00,55.0,47.0,-100.00,ENE,67,3.0,4.0,73,0.00,,,0.04,1.000000,,2013-08-23 08:42:00,
2013-08-23 02:52:00,55.0,47.0,-100.00,ENE,67,3.0,4.0,73,0.00,,,0.04,1.000000,,2013-08-23 08:52:00,
2013-08-23 03:21:00,57.0,46.0,-100.00,East,90,3.0,6.0,67,0.00,,,0.04,1.000000,,2013-08-23 09:21:00,
2013-08-23 03:33:00,57.0,46.0,-100.00,East,90,3.0,6.0,67,0.00,,,0.04,1.000000,,2013-08-23 09:33:00,
2013-08-23 03:43:00,57.0,46.0,-100.00,East,90,3.0,6.0,67,0.00,,,0.04,1.000000,,2013-08-23 09:43:00,
2013-08-23 03:53:00,57.0,46.0,-100.00,East,90,3.0,6.0,67,0.00,,,0.04,1.000000,,2013-08-23 09:53:00,
2013-08-23 04:22:00,53.0,45.0,-100.00,ENE,65,2.0,3.0,75,0.00,,,0.03,1.000000,,2013-08-23 10:22:00,
2013-08-23 04:32:00,53.0,45.0,-100.00,ENE,65,2.0,3.0,75,0.00,,,0.03,1.000000,,2013-08-23 10:32:00,
2013-08-23 04:42:00,53.0,45.0,-100.00,ENE,65,2.0,3.0,75,0.00,,,0.03,1.000000,,2013-08-23 10:42:00,
2013-08-23 04:52:00,53.0,45.0,-100.00,ENE,65,2.0,3.0,75,0.00,,,0.03,1.000000,,2013-08-23 10:52:00,
2013-08-23 05:22:00,52.0,45.0,-100.00,ENE,59,2.0,3.0,76,0.00,,,0.03,1.000000,,2013-08-23 11:22:00,
2013-08-23 05:33:00,52.0,45.0,-100.00,ENE,59,2.0,3.0,76,0.00,,,0.03,1.000000,,2013-08-23 11:33:00,
2013-08-23 05:42:00,52.0,45.0,-100.00,ENE,59,2.0,3.0,76,0.00,,,0.03,1.000000,,2013-08-23 11:42:00,
2013-08-23 05:52:00,52.0,45.0,-100.00,ENE,59,2.0,3.0,76,0.00,,,0.03,1.000000,,2013-08-23 11:52:00,
2013-08-23 06:22:00,52.0,43.0,-100.00,ESE,123,1.0,3.0,72,0.00,,,0.03,1.000000,,2013-08-23 12:22:00,
2013-08-23 06:31:00,52.0,43.0,-100.00,ESE,123,1.0,3.0,72,0.00,,,0.03,1.000000,,2013-08-23 12:31:00,
2013-08-23 06:42:00,52.0,43.0,-100.00,ESE,123,1.0,3.0,72,0.00,,,0.03,1.000000,,2013-08-23 12:42:00,
2013-08-23 06:52:00,52.0,43.0,-100.00,ESE,123,1.0,3.0,72,0.00,,,0.03,1.000000,,2013-08-23 12:52:00,
2013-08-23 07:22:00,54.0,43.0,-100.00,NNE,23,2.0,4.0,65,0.00,,,0.03,3.000000,,2013-08-23 13:22:00,
2013-08-23 07:32:00,54.0,43.0,-100.00,NNE,23,2.0,4.0,65,0.00,,,0.03,3.000000,,2013-08-23 13:32:00,
2013-08-23 07:42:00,54.0,43.0,-100.00,NNE,23,2.0,4.0,65,0.00,,,0.03,3.000000,,2013-08-23 13:42:00,
2013-08-23 07:52:00,54.0,43.0,-100.00,NNE,23,2.0,4.0,65,0.00,,,0.03,3.000000,,2013-08-23 13:52:00,
2013-08-23 08:21:00,62.0,45.0,-100.00,ENE,75,3.0,6.0,53,0.00,,,0.03,87.000000,,2013-08-23 14:21:00,
2013-08-23 08:32:00,62.0,45.0,-100.00,ENE,75,3.0,6.0,53,0.00,,,0.03,87.000000,,2013-08-23 14:32:00,
2013-08-23 08:42:00,62.0,45.0,-100.00,ENE,75,3.0,6.0,53,0.00,,,0.03,87.000000,,2013-08-23 14:42:00,
2013-08-23 08:52:00,62.0,45.0,-100.00,ENE,75,3.0,6.0,53,0.00,,,0.03,87.000000,,2013-08-23 14:52:00,
2013-08-23 08:54:00,68.0,45.0,-100.00,East,80,3.0,6.0,43,0.00,,,0.03,287.000000,,2013-08-23 14:54:00,
2013-08-23 09:22:00,68.0,45.0,-100.00,East,80,3.0,6.0,43,0.00,,,0.03,287.000000,,2013-08-23 15:22:00,
2013-08-23 09:33:00,68.0,45.0,-100.00,East,80,3.0,6.0,43,0.00,,,0.03,287.000000,,2013-08-23 15:33:00,
2013-08-23 09:43:00,68.0,45.0,-100.00,East,80,3.0,6.0,43,0.00,,,0.03,287.000000,,2013-08-23 15:43:00,
2013-08-23 10:24:00,73.0,41.0,-100.00,SW,223,3.0,6.0,32,0.00,,,0.03,478.000000,,2013-08-23 16:24:00,
2013-08-23 10:34:00,73.0,41.0,-100.00,SW,223,3.0,6.0,32,0.00,,,0.03,478.000000,,2013-08-23 16:34:00,
2013-08-23 10:42:00,73.0,41.0,-100.00,SW,223,3.0,6.0,32,0.00,,,0.03,478.000000,,2013-08-23 16:42:00,
2013-08-23 10:53:00,73.0,41.0,-100.00,SW,223,3.0,6.0,32,0.00,,,0.03,478.000000,,2013-08-23 16:53:00,
2013-08-23 11:23:00,72.0,44.0,-100.00,NW,310,3.0,7.0,36,0.01,,,0.04,544.000000,,2013-08-23 17:23:00,
2013-08-23 11:34:00,72.0,44.0,-100.00,NW,310,3.0,7.0,36,0.01,,,0.04,544.000000,,2013-08-23 17:34:00,
2013-08-23 11:42:00,72.0,44.0,-100.00,NW,310,3.0,7.0,36,0.01,,,0.04,544.000000,,2013-08-23 17:42:00,
2013-08-23 11:53:00,72.0,44.0,-100.00,NW,310,3.0,7.0,36,0.01,,,0.04,544.000000,,2013-08-23 17:53:00,
2013-08-23 12:22:00,73.0,44.0,-100.00,NNE,22,2.0,8.0,36,0.00,,,0.04,476.000000,,2013-08-23 18:22:00,
2013-08-23 12:32:00,73.0,44.0,-100.00,NNE,22,2.0,8.0,36,0.00,,,0.04,476.000000,,2013-08-23 18:32:00,
2013-08-23 12:42:00,73.0,44.0,-100.00,NNE,22,2.0,8.0,36,0.00,,,0.04,476.000000,,2013-08-23 18:42:00,
2013-08-23 12:52:00,73.0,44.0,-100.00,NNE,22,2.0,8.0,36,0.00,,,0.04,476.000000,,2013-08-23 18:52:00,
2013-08-23 14:22:00,68.0,51.0,-100.00,NNW,337,5.0,13.0,55,-99.99,,,0.17,874.000000,,2013-08-23 20:22:00,
2013-08-23 14:32:00,68.0,51.0,-100.00,NNW,337,5.0,13.0,55,-99.99,,,0.17,874.000000,,2013-08-23 20:32:00,
2013-08-23 14:42:00,68.0,51.0,-100.00,NNW,337,5.0,13.0,55,-99.99,,,0.17,874.000000,,2013-08-23 20:42:00,
2013-08-23 14:52:00,68.0,51.0,-100.00,NNW,337,5.0,13.0,55,-99.99,,,0.17,874.000000,,2013-08-23 20:52:00,
2013-08-23 14:54:00,74.0,49.0,-100.00,NNW,331,4.0,11.0,41,0.00,,,-99.99,915.000000,,2013-08-23 20:54:00,
2013-08-23 15:21:00,74.0,49.0,-100.00,NNW,331,4.0,11.0,41,0.00,,,-99.99,915.000000,,2013-08-23 21:21:00,
2013-08-23 15:34:00,74.0,49.0,-100.00,NNW,331,4.0,11.0,41,0.00,,,-99.99,915.000000,,2013-08-23 21:34:00,
2013-08-23 15:43:00,74.0,49.0,-100.00,NNW,331,4.0,11.0,41,0.00,,,-99.99,915.000000,,2013-08-23 21:43:00,
2013-08-23 16:24:00,74.0,46.0,-100.00,WNW,298,3.0,10.0,37,0.00,,,0.16,691.000000,,2013-08-23 22:24:00,
2013-08-23 16:33:00,74.0,46.0,-100.00,WNW,298,3.0,10.0,37,0.00,,,0.16,691.000000,,2013-08-23 22:33:00,
2013-08-23 16:43:00,74.0,46.0,-100.00,WNW,298,3.0,10.0,37,0.00,,,0.16,691.000000,,2013-08-23 22:43:00,
2013-08-23 16:53:00,74.0,46.0,-100.00,WNW,298,3.0,10.0,37,0.00,,,0.16,691.000000,,2013-08-23 22:53:00,
2013-08-23 17:22:00,68.0,46.0,-100.00,North,352,1.0,10.0,46,0.02,,,0.16,216.000000,,2013-08-23 23:22:00,
2013-08-23 17:33:00,68.0,46.0,-100.00,North,352,1.0,10.0,46,0.02,,,0.16,216.000000,,2013-08-23 23:33:00,
2013-08-23 17:43:00,68.0,46.0,-100.00,North,352,1.0,10.0,46,0.02,,,0.16,216.000000,,2013-08-23 23:43:00,
2013-08-23 18:21:00,74.0,45.0,-100.00,West,271,7.0,16.0,36,0.00,,,0.16,389.000000,,2013-08-24 00:21:00,
2013-08-23 18:32:00,74.0,45.0,-100.00,West,271,7.0,16.0,36,0.00,,,0.16,389.000000,,2013-08-24 00:32:00,
2013-08-23 18:43:00,74.0,45.0,-100.00,West,271,7.0,16.0,36,0.00,,,0.16,389.000000,,2013-08-24 00:43:00,
2013-08-23 18:53:00,74.0,45.0,-100.00,West,271,7.0,16.0,36,0.00,,,0.16,389.000000,,2013-08-24 00:53:00,
2013-08-23 19:22:00,72.0,42.0,-100.00,West,275,4.0,13.0,34,0.00,,,0.16,295.000000,,2013-08-24 01:22:00,
2013-08-23 19:32:00,72.0,42.0,-100.00,West,275,4.0,13.0,34,0.00,,,0.16,295.000000,,2013-08-24 01:32:00,
2013-08-23 19:42:00,72.0,42.0,-100.00,West,275,4.0,13.0,34,0.00,,,0.16,295.000000,,2013-08-24 01:42:00,
2013-08-23 19:53:00,72.0,42.0,-100.00,West,275,4.0,13.0,34,0.00,,,0.16,295.000000,,2013-08-24 01:53:00,
2013-08-23 20:22:00,64.0,42.0,-100.00,NNE,24,0.0,8.0,45,0.00,,,0.16,30.000000,,2013-08-24 02:22:00,
2013-08-23 20:32:00,64.0,42.0,-100.00,NNE,24,0.0,8.0,45,0.00,,,0.16,30.000000,,2013-08-24 02:32:00,
2013-08-23 20:42:00,64.0,42.0,-100.00,NNE,24,0.0,8.0,45,0.00,,,0.16,30.000000,,2013-08-24 02:42:00,
2013-08-23 20:52:00,64.0,42.0,-100.00,NNE,24,0.0,8.0,45,0.00,,,0.16,30.000000,,2013-08-24 02:52:00,
2013-08-23 20:54:00,61.0,42.0,-100.00,ENE,77,2.0,3.0,49,0.00,,,0.16,1.000000,,2013-08-24 02:54:00,
2013-08-23 21:22:00,61.0,42.0,-100.00,ENE,77,2.0,3.0,49,0.00,,,0.16,1.000000,,2013-08-24 03:22:00,
2013-08-23 21:34:00,61.0,42.0,-100.00,ENE,77,2.0,3.0,49,0.00,,,0.16,1.000000,,2013-08-24 03:34:00,
2013-08-23 21:44:00,61.0,42.0,-100.00,ENE,77,2.0,3.0,49,0.00,,,0.16,1.000000,,2013-08-24 03:44:00,
2013-08-23 22:24:00,58.0,43.0,-100.00,ESE,111,2.0,6.0,57,0.00,,,0.16,1.000000,,2013-08-24 04:24:00,
2013-08-23 22:34:00,58.0,43.0,-100.00,ESE,111,2.0,6.0,57,0.00,,,0.16,1.000000,,2013-08-24 04:34:00,
2013-08-23 22:44:00,58.0,43.0,-100.00,ESE,111,2.0,6.0,57,0.00,,,0.16,1.000000,,2013-08-24 04:44:00,
2013-08-23 22:53:00,58.0,43.0,-100.00,ESE,111,2.0,6.0,57,0.00,,,0.16,1.000000,,2013-08-24 04:53:00,
2013-08-23 23:23:00,58.0,41.0,-100.00,SSE,165,1.0,6.0,54,0.00,,,0.16,1.000000,,2013-08-24 05:23:00,
2013-08-23 23:33:00,58.0,41.0,-100.00,SSE,165,1.0,6.0,54,0.00,,,0.16,1.000000,,2013-08-24 05:33:00,
2013-08-23 23:43:00,58.0,41.0,-100.00,SSE,165,1.0,6.0,54,0.00,,,0.16,1.000000,,2013-08-24 05:43:00,
2013-08-23 23:53:00,58.0,41.0,-100.00,SSE,165,1.0,6.0,54,0.00,,,0.16,1.000000,,2013-08-24 05:53:00,